createdAt,value
2022-12-18T00:01:17.828Z,-9
2022-12-18T00:11:20.110Z,-9.3
2022-12-18T00:21:21.921Z,-9.3
2022-12-18T00:31:24.629Z,-9
2022-12-18T00:41:27.220Z,-9.2
2022-12-18T00:51:29.156Z,-9.3
2022-12-18T01:01:31.461Z,-9.4
2022-12-18T01:11:33.652Z,-9.6
2022-12-18T01:21:35.421Z,-9.6
2022-12-18T01:31:38.118Z,-9.6
2022-12-18T01:41:40.108Z,-9.7
2022-12-18T01:51:42.031Z,-9.8
2022-12-18T02:01:44.236Z,-9.8
2022-12-18T02:11:45.878Z,-9.7
2022-12-18T02:21:48.409Z,-9.9
2022-12-18T02:31:50.851Z,-9.8
2022-12-18T02:41:52.586Z,-9.9
2022-12-18T02:51:54.477Z,-9.7
2022-12-18T03:01:56.629Z,-9.8
2022-12-18T03:11:59.127Z,-10
2022-12-18T03:22:01.104Z,-9.9
2022-12-18T03:32:03.329Z,-10
2022-12-18T03:42:05.537Z,-10
2022-12-18T04:02:09.464Z,-10.1
2022-12-18T04:12:11.842Z,-10.1
2022-12-18T04:22:14.416Z,-10.2
2022-12-18T04:32:16.892Z,-10.3
2022-12-18T04:42:18.901Z,-10.4
2022-12-18T05:02:23.362Z,-10.4
2022-12-18T05:12:25.427Z,-10.4
2022-12-18T05:22:27.224Z,-10.2
2022-12-18T05:32:29.830Z,-10
2022-12-18T05:42:31.923Z,-9.8
2022-12-18T05:52:34.256Z,-9.8
2022-12-18T06:02:36.059Z,-9.7
2022-12-18T06:12:38.194Z,-9.7
2022-12-18T06:22:40.741Z,-9.6
2022-12-18T06:32:42.694Z,-9.6
2022-12-18T06:52:47.051Z,-9.6
2022-12-18T07:12:52.036Z,-9.6
2022-12-18T07:22:56.307Z,-9.6
2022-12-18T07:32:56.188Z,-9.6
2022-12-18T07:42:58.075Z,-9.6
2022-12-18T08:03:02.514Z,-9.4
2022-12-18T08:13:05.412Z,-9.2
2022-12-18T08:23:06.960Z,-8.9
2022-12-18T08:33:09.373Z,-8.6
2022-12-18T08:43:11.875Z,-8.2
2022-12-18T08:53:14.142Z,-7.8
2022-12-18T09:03:16.764Z,-7.4
2022-12-18T09:13:18.932Z,-6.9
2022-12-18T09:23:21.122Z,-6.3
2022-12-18T09:43:25.758Z,-5.8
2022-12-18T09:53:28.415Z,-5.2
2022-12-18T10:03:30.198Z,-4.6
2022-12-18T10:13:32.090Z,-4.1
2022-12-18T10:23:34.136Z,-3.7
2022-12-18T10:33:35.974Z,-3.4
2022-12-18T10:43:38.044Z,-3.2
2022-12-18T10:53:40.341Z,-3
2022-12-18T11:03:42.606Z,-2.5
2022-12-18T11:13:44.611Z,-2.1
2022-12-18T11:34:05.113Z,-1.5
2022-12-18T11:43:51.664Z,-1.3
2022-12-18T11:53:53.948Z,-1.1
2022-12-18T12:03:56.399Z,-1
2022-12-18T12:13:58.544Z,-0.9
2022-12-18T12:24:01.074Z,-0.9
2022-12-18T12:34:03.140Z,-0.8
2022-12-18T12:44:05.311Z,-0.8
2022-12-18T12:54:07.488Z,-0.7
2022-12-18T13:04:09.561Z,-0.7
2022-12-18T13:14:11.327Z,-0.7
2022-12-18T13:24:13.326Z,-0.7
2022-12-18T13:34:27.169Z,-0.7
2022-12-18T13:44:17.460Z,-0.6
2022-12-18T13:54:19.766Z,-0.6
2022-12-18T14:04:21.798Z,-0.5
2022-12-18T14:14:26.919Z,-0.6
2022-12-18T14:34:27.910Z,-0.7
2022-12-18T14:44:34.834Z,-0.7
2022-12-18T14:54:32.265Z,-0.7
2022-12-18T15:14:36.631Z,-1.1
2022-12-18T15:24:38.790Z,-0.9
2022-12-18T15:34:40.584Z,-0.8
2022-12-18T15:44:43.188Z,-0.7
2022-12-18T15:54:45.206Z,-0.7
2022-12-18T16:04:47.817Z,-0.7
2022-12-18T16:14:50.367Z,-1
2022-12-18T16:24:52.672Z,-1.1
2022-12-18T16:34:54.387Z,-1.3
2022-12-18T16:44:56.476Z,-1.2
2022-12-18T16:54:58.299Z,-1.2
2022-12-18T16:55:20.186Z,-1.2
2022-12-18T17:05:07.879Z,-1.3
2022-12-18T17:15:09.751Z,-1.2
2022-12-18T17:25:11.871Z,-1.3
2022-12-18T17:35:14.336Z,-1.2
2022-12-18T17:45:16.395Z,-1.3
2022-12-18T17:55:18.937Z,-1.3
2022-12-18T18:05:20.969Z,-1.3
2022-12-18T18:15:22.751Z,-1.4
2022-12-18T18:25:24.729Z,-1.5
2022-12-18T18:35:52.690Z,-1.5
2022-12-18T18:45:29.567Z,-1.4
2022-12-18T18:55:31.943Z,-0.9
2022-12-18T19:05:34.441Z,-0.1
2022-12-18T19:25:41.569Z,0.2
2022-12-18T19:35:41.119Z,0.2
2022-12-18T19:45:43.391Z,0
2022-12-18T19:55:45.566Z,0.3
2022-12-18T20:05:47.408Z,0.4
2022-12-18T20:15:49.505Z,0.4
2022-12-18T20:25:51.673Z,0.3
2022-12-18T20:35:54.247Z,0.3
2022-12-18T20:45:56.716Z,0.3
2022-12-18T20:55:59.284Z,0.4
2022-12-18T21:06:01.690Z,0.4
2022-12-18T21:16:03.664Z,0.5
2022-12-18T21:26:05.424Z,0.6
2022-12-18T21:36:07.665Z,0.6
2022-12-18T21:46:09.540Z,0.6
2022-12-18T21:56:11.169Z,0.6
2022-12-18T22:06:13.629Z,0.5
2022-12-18T22:16:15.377Z,0.5
2022-12-18T22:26:17.184Z,0.5
2022-12-18T22:36:19.444Z,0.5
2022-12-18T22:46:21.419Z,0.5
2022-12-18T22:56:23.277Z,0.4
2022-12-18T23:06:25.677Z,0.4
2022-12-18T23:16:27.481Z,0.6
2022-12-18T23:26:29.942Z,0.6
2022-12-18T23:36:40.956Z,0.7
2022-12-18T23:46:34.811Z,0.8
2022-12-18T23:56:37.169Z,1
